Time;durP1;ratioP1;P1;durP2;ratioP2;P2;SDS_P1;SDS_P2;PMS_P1;PMS_P2;Temp;Humidity;BMP_temperature;BMP_pressure;BME280_temperature;BME280_humidity;BME280_pressure;Samples;Min_cycle;Max_cycle;Signal;HPM_P1;HPM_P2
2021/03/24 00:02:29;;;;;;;14.30;9.57;;;;;;;18.98;34.64;101785.63;31382485;28;20300;-61
2021/03/24 00:17:30;;;;;;;13.10;9.65;;;;;;;18.94;34.73;101774.47;31372612;28;20303;-61
2021/03/24 00:32:31;;;;;;;13.20;9.20;;;;;;;18.90;34.78;101772.13;31371823;28;20035;-61
2021/03/24 00:47:32;;;;;;;13.53;10.30;;;;;;;18.84;34.90;101750.53;31371156;28;20360;-61
2021/03/24 01:02:33;;;;;;;11.68;8.95;;;;;;;18.80;35.02;101742.97;31367461;28;20296;-62
2021/03/24 01:17:34;;;;;;;12.75;9.43;;;;;;;18.75;34.98;101743.25;31363979;28;20033;-62
2021/03/24 01:32:36;;;;;;;13.90;10.37;;;;;;;18.70;35.15;101741.88;31362234;28;20043;-62
2021/03/24 01:47:37;;;;;;;13.52;9.23;;;;;;;18.65;34.97;101729.03;31407514;28;20303;-62
2021/03/24 02:02:38;;;;;;;12.40;9.63;;;;;;;18.61;35.37;101727.56;31481182;28;20058;-62
2021/03/24 02:17:41;;;;;;;12.57;9.10;;;;;;;18.53;35.24;101725.44;31484297;28;20293;-62
2021/03/24 02:32:45;;;;;;;12.80;9.50;;;;;;;18.49;35.36;101728.41;31488747;28;20032;-62
2021/03/24 02:47:46;;;;;;;11.00;9.00;;;;;;;18.46;35.54;101734.69;31438570;28;20041;-62
2021/03/24 03:02:57;;;;;;;12.00;8.60;;;;;;;18.41;35.52;101734.16;31363940;28;20053;-62
2021/03/24 03:18:06;;;;;;;12.07;8.82;;;;;;;18.37;35.63;101727.41;31379115;28;20826;-61
2021/03/24 03:33:12;;;;;;;11.75;8.35;;;;;;;18.35;35.69;101716.16;31376400;28;20033;-60
2021/03/24 03:48:14;;;;;;;10.70;8.43;;;;;;;18.32;35.50;101734.78;31428447;28;20031;-61
2021/03/24 04:03:16;;;;;;;11.40;8.45;;;;;;;18.27;35.87;101719.28;31500142;28;20074;-62
2021/03/24 04:18:26;;;;;;;10.45;7.70;;;;;;;18.23;35.67;101722.22;31483405;28;20466;-62
2021/03/24 04:33:27;;;;;;;11.25;8.52;;;;;;;18.21;35.61;101707.41;31479133;28;20082;-61
2021/03/24 04:48:35;;;;;;;11.37;8.20;;;;;;;18.18;35.87;101709.38;31420221;28;20040;-61
2021/03/24 05:03:40;;;;;;;10.90;7.97;;;;;;;18.16;35.75;101721.78;31349121;28;20292;-61
2021/03/24 05:18:41;;;;;;;11.27;7.82;;;;;;;18.14;35.82;101721.03;31363920;28;20032;-61
2021/03/24 05:33:46;;;;;;;11.20;7.80;;;;;;;18.13;35.69;101722.00;31345035;28;20044;-61
2021/03/24 05:49:07;;;;;;;10.73;8.13;;;;;;;18.13;35.56;101733.34;31403938;28;20020;-59
2021/03/24 06:04:28;;;;;;;10.35;7.25;;;;;;;18.12;35.70;101730.81;31482095;28;20430;-59
2021/03/24 06:19:40;;;;;;;9.15;7.20;;;;;;;18.16;35.69;101734.94;31503026;28;20029;-56
2021/03/24 06:35:18;;;;;;;24.60;19.02;;;;;;;17.72;33.48;101750.00;31439615;28;20040;-53
2021/03/24 06:50:50;;;;;;;41.03;27.57;;;;;;;15.43;36.21;101752.06;31530999;28;20133;-52
2021/03/24 07:06:16;;;;;;;44.40;28.10;;;;;;;14.95;38.97;101769.44;31490374;28;20040;-57
2021/03/24 07:21:26;;;;;;;29.88;17.73;;;;;;;16.48;38.80;101784.66;31419169;28;20051;-59
2021/03/24 07:36:55;;;;;;;22.08;13.68;;;;;;;17.48;37.08;101785.75;31463313;28;20107;-61
2021/03/24 07:52:07;;;;;;;27.75;15.55;;;;;;;18.04;36.88;101788.38;31493398;28;20041;-57
2021/03/24 08:07:26;;;;;;;26.90;18.52;;;;;;;18.38;36.50;101805.44;31445571;28;20081;-54
2021/03/24 08:22:50;;;;;;;26.35;17.58;;;;;;;18.73;35.45;101804.88;31457236;28;20109;-56
2021/03/24 08:38:29;;;;;;;21.67;13.65;;;;;;;19.13;35.53;101810.09;31461065;28;20036;-58
2021/03/24 08:54:17;;;;;;;12.68;9.05;;;;;;;19.69;34.80;101799.19;31438519;28;20037;-59
2021/03/24 09:09:43;;;;;;;10.52;8.25;;;;;;;20.07;34.61;101794.63;31434461;28;20044;-58
2021/03/24 09:25:06;;;;;;;10.43;7.45;;;;;;;20.26;34.46;101793.25;31475025;28;20028;-57
2021/03/24 09:40:10;;;;;;;12.43;7.43;;;;;;;20.36;34.42;101781.03;31507555;28;20091;-58
2021/03/24 09:55:31;;;;;;;12.90;7.70;;;;;;;20.40;34.52;101777.22;31459938;28;20045;-57
2021/03/24 10:10:33;;;;;;;14.68;10.20;;;;;;;20.24;34.71;101763.50;31439756;28;20055;-59
2021/03/24 10:25:36;;;;;;;11.30;8.88;;;;;;;20.25;35.08;101752.00;31523832;28;20048;-59
2021/03/24 10:40:43;;;;;;;12.45;9.43;;;;;;;20.34;34.91;101748.66;31489066;28;20032;-59
2021/03/24 10:55:44;;;;;;;13.77;10.70;;;;;;;20.37;34.69;101729.09;31538555;28;20665;-60
2021/03/24 11:10:47;;;;;;;15.45;11.90;;;;;;;20.64;34.04;101726.19;31492709;28;20024;-58
2021/03/24 11:25:56;;;;;;;15.43;12.38;;;;;;;21.07;33.28;101706.97;31441234;28;20091;-60
2021/03/24 11:41:12;;;;;;;14.73;12.57;;;;;;;21.40;32.39;101707.91;31509663;28;20032;-63
2021/03/24 11:56:47;;;;;;;15.00;12.90;;;;;;;21.32;32.75;101685.53;31448323;28;20040;-62
2021/03/24 12:11:48;;;;;;;22.25;15.38;;;;;;;21.32;33.92;101666.19;31473051;28;20040;-63
2021/03/24 12:26:49;;;;;;;16.88;13.65;;;;;;;20.82;32.96;101655.22;31461671;28;20040;-59
2021/03/24 12:41:50;;;;;;;16.87;12.80;;;;;;;21.08;33.96;101637.31;31499977;28;20028;-60
2021/03/24 12:57:32;;;;;;;14.57;11.77;;;;;;;21.19;34.11;101612.63;31510321;28;20295;-61
2021/03/24 13:12:56;;;;;;;14.20;11.45;;;;;;;21.63;33.42;101595.81;31452507;28;20287;-61
2021/03/24 13:28:10;;;;;;;11.95;9.65;;;;;;;21.98;33.34;101585.88;31488968;28;20102;-58
2021/03/24 13:43:23;;;;;;;37.70;25.95;;;;;;;21.29;28.34;101560.69;31432444;28;20033;-57
2021/03/24 13:58:37;;;;;;;15.48;12.65;;;;;;;20.98;34.57;101550.00;31428764;28;20041;-56
2021/03/24 14:13:49;;;;;;;14.23;11.15;;;;;;;21.06;34.89;101542.25;31415642;28;20033;-59
2021/03/24 14:29:18;;;;;;;12.63;10.75;;;;;;;21.30;34.99;101530.63;31417801;28;20103;-62
2021/03/24 14:44:38;;;;;;;13.85;10.02;;;;;;;21.10;35.65;101522.53;31405944;28;20029;-61
2021/03/24 14:59:42;;;;;;;11.80;10.05;;;;;;;20.83;36.25;101516.88;31447192;28;20048;-59
2021/03/24 15:14:49;;;;;;;13.10;11.00;;;;;;;20.54;37.18;101511.25;31491721;28;20032;-62
2021/03/24 15:30:07;;;;;;;12.63;10.68;;;;;;;20.38;37.77;101507.16;31520011;28;20439;-59
2021/03/24 15:45:11;;;;;;;14.60;11.38;;;;;;;20.57;38.32;101508.38;31461944;28;20032;-61
2021/03/24 16:00:32;;;;;;;12.75;11.30;;;;;;;20.55;38.96;101502.34;31477440;28;20134;-60
2021/03/24 16:15:40;;;;;;;14.85;11.63;;;;;;;20.42;38.94;101494.59;31479049;28;20098;-60
2021/03/24 16:30:43;;;;;;;15.82;11.95;;;;;;;20.33;39.15;101498.78;31460108;28;20032;-60
2021/03/24 16:46:09;;;;;;;13.90;12.40;;;;;;;20.26;39.15;101487.88;31491097;28;20037;-59
2021/03/24 17:01:15;;;;;;;19.00;16.00;;;;;;;20.30;38.76;101486.66;31459241;28;20037;-59
2021/03/24 17:16:23;;;;;;;16.43;14.13;;;;;;;20.38;38.68;101474.66;31445317;28;20040;-58
2021/03/24 17:31:25;;;;;;;16.45;14.25;;;;;;;20.38;38.46;101482.56;31488876;28;20546;-60
2021/03/24 17:46:42;;;;;;;19.55;14.15;;;;;;;20.39;38.29;101490.38;31455709;28;20071;-60
2021/03/24 18:01:44;;;;;;;;;;;;;;;20.43;38.13;101490.97;31486270;28;20490;-60
2021/03/24 18:16:48;;;;;;;17.85;14.93;;;;;;;20.21;37.50;101490.03;31494776;28;20347;-62
2021/03/24 18:31:50;;;;;;;15.63;12.93;;;;;;;20.08;37.79;101490.16;31481844;28;20029;-62
2021/03/24 18:46:51;;;;;;;20.92;16.08;;;;;;;20.04;36.74;101496.66;31433735;28;20037;-61
2021/03/24 19:01:52;;;;;;;18.25;14.45;;;;;;;19.93;36.60;101488.72;31356633;28;20044;-62
2021/03/24 19:16:53;;;;;;;19.87;14.00;;;;;;;19.80;37.41;101478.25;31413960;28;20039;-62
2021/03/24 19:31:54;;;;;;;48.08;34.70;;;;;;;19.19;33.63;101472.34;31395451;28;20866;-59
2021/03/24 19:47:03;;;;;;;58.15;41.60;;;;;;;17.31;34.48;101480.19;31451876;28;20092;-58
2021/03/24 20:02:31;;;;;;;55.75;37.33;;;;;;;16.69;36.19;101471.97;31574961;28;20110;-61
2021/03/24 20:17:42;;;;;;;;;;;;;;;18.00;36.42;101459.78;31478693;28;20044;-64
2021/03/24 20:32:43;;;;;;;30.42;20.38;;;;;;;18.80;35.01;101456.72;31473560;28;19916;-65
2021/03/24 20:47:44;;;;;;;24.77;19.50;;;;;;;19.27;34.99;101448.06;31532829;28;20032;-65
2021/03/24 21:02:45;;;;;;;25.73;18.23;;;;;;;19.67;34.71;101448.47;31459185;28;20041;-65
2021/03/24 21:17:46;;;;;;;23.23;17.23;;;;;;;19.93;34.45;101441.22;31437732;28;20045;-65
2021/03/24 21:32:47;;;;;;;22.67;16.77;;;;;;;20.17;34.52;101441.09;31438932;28;20822;-66
2021/03/24 21:47:57;;;;;;;21.77;17.10;;;;;;;20.11;34.87;101422.25;31430346;28;20118;-64
2021/03/24 22:03:27;;;;;;;20.02;16.10;;;;;;;20.12;34.67;101427.41;31508643;28;20409;-62
2021/03/24 22:18:31;;;;;;;20.13;16.13;;;;;;;20.08;34.76;101403.06;31426950;28;20049;-62
2021/03/24 22:34:07;;;;;;;18.52;14.95;;;;;;;20.17;35.23;101393.56;31451192;28;20028;-64
2021/03/24 22:49:12;;;;;;;31.40;23.27;;;;;;;19.96;34.56;101388.22;31473476;28;20044;-61
2021/03/24 23:04:23;;;;;;;32.22;22.73;;;;;;;19.82;34.13;101381.38;31525159;28;20040;-64
2021/03/24 23:19:27;;;;;;;23.25;18.27;;;;;;;19.80;35.28;101374.56;31525128;28;20096;-62
2021/03/24 23:34:28;;;;;;;19.38;15.85;;;;;;;19.71;35.40;101364.72;31465130;28;20478;-63
2021/03/24 23:49:29;;;;;;;20.40;16.08;;;;;;;19.61;36.04;101373.31;31358284;28;20044;-62
